Time;durP1;ratioP1;P1;durP2;ratioP2;P2;SDS_P1;SDS_P2;PMS_P1;PMS_P2;Temp;Humidity;BMP_temperature;BMP_pressure;BME280_temperature;BME280_humidity;BME280_pressure;Samples;Min_cycle;Max_cycle;Signal;HPM_P1;HPM_P2
2022/04/17 00:00:36;;;;;;;3.03;2.22;;;;;;;5.07;60.96;96989.44;5053407;28;24545;-75
2022/04/17 00:03:03;;;;;;;5.10;2.65;;;;;;;4.90;60.90;96988.13;5052842;28;24793;-75
2022/04/17 00:05:31;;;;;;;3.55;2.38;;;;;;;4.88;60.60;96987.31;5053251;28;24960;-75
2022/04/17 00:07:57;;;;;;;4.25;2.45;;;;;;;4.89;61.37;96974.44;5053450;28;24786;-75
2022/04/17 00:10:24;;;;;;;3.13;2.53;;;;;;;4.79;61.98;96976.34;5053219;28;24991;-75
2022/04/17 00:12:50;;;;;;;4.82;2.53;;;;;;;4.64;62.42;96968.97;5052999;28;24477;-75
2022/04/17 00:15:17;;;;;;;4.15;2.97;;;;;;;4.44;63.36;96959.09;5053107;28;24423;-75
2022/04/17 00:17:43;;;;;;;4.47;2.40;;;;;;;4.53;62.32;96966.63;5052903;28;24419;-75
2022/04/17 00:20:12;;;;;;;4.10;2.67;;;;;;;4.45;62.00;96970.19;5053151;28;24999;-75
2022/04/17 00:22:40;;;;;;;6.90;2.83;;;;;;;4.43;62.29;96959.97;5052772;28;24502;-75
2022/04/17 00:25:08;;;;;;;4.70;2.80;;;;;;;4.34;63.39;96973.84;5052923;28;24427;-75
2022/04/17 00:27:34;;;;;;;3.50;2.45;;;;;;;4.05;65.36;96961.53;5053046;28;24859;-75
2022/04/17 00:30:01;;;;;;;4.75;2.58;;;;;;;3.91;66.30;96953.25;5052773;28;24423;-75
2022/04/17 00:32:28;;;;;;;4.60;2.63;;;;;;;3.72;67.98;96962.13;5052956;28;24521;-75
2022/04/17 00:34:55;;;;;;;4.78;2.67;;;;;;;3.61;68.40;96968.28;5052988;28;24428;-75
2022/04/17 00:37:21;;;;;;;4.63;2.63;;;;;;;3.43;69.06;96963.44;5052950;28;24430;-75
2022/04/17 00:39:49;;;;;;;2.57;2.37;;;;;;;3.77;66.58;96965.44;5052775;28;24546;-74
2022/04/17 00:42:15;;;;;;;5.22;2.83;;;;;;;3.62;67.21;96954.59;5052475;28;24419;-76
2022/04/17 00:44:42;;;;;;;4.72;2.47;;;;;;;3.84;66.13;96951.66;5052362;28;24423;-74
2022/04/17 00:47:11;;;;;;;4.20;3.05;;;;;;;3.78;66.15;96944.06;5052689;28;24419;-75
2022/04/17 00:49:38;;;;;;;3.97;2.95;;;;;;;3.82;65.31;96951.72;5052674;28;24423;-74
2022/04/17 00:52:05;;;;;;;4.18;2.80;;;;;;;3.92;64.79;96949.81;5052389;28;24423;-75
2022/04/17 00:54:33;;;;;;;5.68;2.83;;;;;;;3.99;65.03;96941.13;5052869;28;24458;-74
2022/04/17 00:57:02;;;;;;;3.92;2.75;;;;;;;3.91;65.47;96943.00;5052421;28;24423;-75
2022/04/17 00:59:29;;;;;;;5.90;3.10;;;;;;;3.74;66.88;96947.56;5051655;28;24430;-75
2022/04/17 01:01:55;;;;;;;3.92;2.80;;;;;;;3.77;66.53;96948.34;5052063;28;25056;-75
2022/04/17 01:04:22;;;;;;;3.95;2.55;;;;;;;3.93;65.30;96937.84;5052161;28;24426;-75
2022/04/17 01:06:48;;;;;;;4.00;2.77;;;;;;;3.93;65.33;96941.25;5052375;28;24537;-74
2022/04/17 01:09:16;;;;;;;3.50;2.50;;;;;;;4.06;64.94;96939.31;5052626;28;24789;-75
2022/04/17 01:11:44;;;;;;;3.33;2.17;;;;;;;4.04;64.64;96931.66;5051742;28;24489;-75
2022/04/17 01:14:12;;;;;;;4.15;2.47;;;;;;;4.01;65.14;96930.88;5052216;28;24423;-75
2022/04/17 01:16:39;;;;;;;4.03;2.80;;;;;;;3.96;65.76;96933.50;5052232;28;24477;-74
2022/04/17 01:19:11;;;;;;;4.35;2.35;;;;;;;4.03;65.51;96927.38;5051983;28;24788;-75
2022/04/17 01:21:40;;;;;;;4.25;2.83;;;;;;;3.90;65.74;96927.66;5051750;28;24471;-75
2022/04/17 01:26:57;;;;;;;3.63;2.78;;;;;;;3.79;66.20;96933.81;5042298;28;24848;-75
2022/04/17 01:29:25;;;;;;;3.20;2.80;;;;;;;3.62;66.65;96928.13;5051903;28;24419;-75
2022/04/17 01:31:51;;;;;;;3.90;2.50;;;;;;;3.62;67.08;96920.44;5051728;28;24793;-75
2022/04/17 01:34:18;;;;;;;5.03;2.88;;;;;;;3.64;67.64;96923.84;5052363;28;24419;-75
2022/04/17 01:36:48;;;;;;;3.85;2.58;;;;;;;3.67;67.28;96925.47;5051530;28;24423;-75
2022/04/17 01:39:14;;;;;;;3.67;2.42;;;;;;;3.64;67.77;96917.00;5051800;28;24446;-75
2022/04/17 01:41:41;;;;;;;7.07;2.40;;;;;;;3.61;67.33;96917.03;5051387;28;24435;-75
2022/04/17 01:44:08;;;;;;;2.90;2.40;;;;;;;3.63;67.42;96915.31;5051535;28;24431;-75
2022/04/17 01:46:35;;;;;;;3.40;2.70;;;;;;;3.61;66.97;96914.47;5051425;28;24422;-75
2022/04/17 01:49:03;;;;;;;3.20;2.60;;;;;;;3.57;67.20;96912.00;5051456;28;24517;-75
2022/04/17 01:51:37;;;;;;;3.73;2.50;;;;;;;3.57;67.50;96906.88;5051405;28;24912;-75
2022/04/17 01:54:06;;;;;;;3.90;2.60;;;;;;;3.64;67.21;96908.47;5051442;28;25042;-74
2022/04/17 01:56:32;;;;;;;2.80;2.40;;;;;;;3.63;67.81;96904.19;5051238;28;24477;-75
2022/04/17 01:58:58;;;;;;;4.25;2.53;;;;;;;3.60;67.52;96899.97;5051382;28;24784;-76
2022/04/17 02:01:25;;;;;;;6.40;2.60;;;;;;;3.61;67.33;96903.38;5050733;28;25045;-75
2022/04/17 02:03:51;;;;;;;5.70;2.70;;;;;;;3.66;67.75;96896.47;5050781;28;24439;-75
2022/04/17 02:06:18;;;;;;;5.43;2.40;;;;;;;3.64;67.57;96900.78;5051220;28;24766;-76
2022/04/17 02:08:44;;;;;;;4.78;2.53;;;;;;;3.54;68.48;96912.03;5051182;28;24423;-75
2022/04/17 02:11:13;;;;;;;3.03;2.30;;;;;;;3.46;68.82;96901.09;5050126;28;24407;-76
2022/04/17 02:13:39;;;;;;;3.60;2.25;;;;;;;3.62;67.44;96900.78;5050906;28;24470;-75
2022/04/17 02:16:07;;;;;;;2.70;2.30;;;;;;;3.40;69.38;96889.22;5050861;28;24440;-75
2022/04/17 02:18:33;;;;;;;2.65;2.10;;;;;;;3.39;68.95;96890.09;5050700;28;24426;-76
2022/04/17 02:21:01;;;;;;;4.57;2.38;;;;;;;3.35;69.17;96884.19;5050720;28;24509;-75
2022/04/17 02:23:27;;;;;;;3.90;2.50;;;;;;;3.18;70.16;96885.31;5050894;28;24481;-75
2022/04/17 02:25:54;;;;;;;3.35;2.38;;;;;;;3.03;70.85;96879.56;5050707;28;24995;-75
2022/04/17 02:28:21;;;;;;;3.78;2.45;;;;;;;2.97;71.08;96873.72;5050702;28;24964;-75
2022/04/17 02:30:48;;;;;;;3.58;2.33;;;;;;;2.88;70.92;96883.19;5050382;28;24418;-75
2022/04/17 02:33:14;;;;;;;4.38;2.30;;;;;;;2.91;71.63;96887.44;5050466;28;24980;-75
2022/04/17 02:35:41;;;;;;;3.65;2.33;;;;;;;2.88;71.95;96879.78;5050654;28;24438;-74
2022/04/17 02:38:07;;;;;;;3.38;2.55;;;;;;;2.83;72.21;96881.59;5050708;28;24781;-75
2022/04/17 02:40:34;;;;;;;5.13;2.40;;;;;;;2.83;72.03;96873.91;5050354;28;24988;-75
2022/04/17 02:43:00;;;;;;;4.22;2.38;;;;;;;2.83;71.37;96885.00;5050258;28;24476;-75
2022/04/17 02:45:28;;;;;;;2.28;1.95;;;;;;;2.71;72.86;96872.38;5050767;28;24434;-75
2022/04/17 02:47:55;;;;;;;2.55;2.10;;;;;;;2.66;74.25;96874.13;5050457;28;24994;-76
2022/04/17 02:50:22;;;;;;;3.25;1.92;;;;;;;2.72;74.23;96878.34;5050607;28;24794;-74
2022/04/17 02:52:49;;;;;;;2.40;1.80;;;;;;;2.45;75.18;96871.88;5050231;28;24526;-75
2022/04/17 02:55:15;;;;;;;3.75;2.13;;;;;;;2.29;76.54;96872.06;5050243;28;24442;-75
2022/04/17 02:57:42;;;;;;;3.42;2.13;;;;;;;2.28;76.17;96865.28;5050311;28;24960;-75
2022/04/17 03:00:10;;;;;;;2.72;1.92;;;;;;;2.41;74.89;96860.84;5049955;28;24971;-75
2022/04/17 03:05:39;;;;;;;3.28;2.15;;;;;;;2.23;76.34;96859.38;5050257;28;24449;-75
2022/04/17 03:08:08;;;;;;;2.30;2.00;;;;;;;2.18;76.63;96849.19;5050260;28;24841;-74
2022/04/17 03:10:35;;;;;;;4.45;2.42;;;;;;;2.14;76.99;96851.81;5050147;28;24973;-75
2022/04/17 03:13:02;;;;;;;3.45;2.58;;;;;;;1.97;76.72;96859.69;5049833;28;24419;-75
2022/04/17 03:15:28;;;;;;;4.70;3.00;;;;;;;1.94;77.08;96852.06;5050074;28;24476;-75
2022/04/17 03:17:56;;;;;;;3.30;2.40;;;;;;;2.02;78.34;96859.63;5050215;28;24427;-75
2022/04/17 03:20:23;;;;;;;3.42;2.63;;;;;;;2.07;78.53;96860.41;5050077;28;24481;-75
2022/04/17 03:22:50;;;;;;;4.72;3.00;;;;;;;2.16;77.43;96860.31;5052089;28;24450;-75
2022/04/17 03:25:16;;;;;;;3.75;2.40;;;;;;;2.21;75.98;96856.00;5053996;28;24430;-74
2022/04/17 03:27:46;;;;;;;3.47;2.63;;;;;;;2.05;77.95;96859.59;5054259;28;24978;-75
2022/04/17 03:30:14;;;;;;;3.80;2.20;;;;;;;2.20;75.35;96858.56;5054122;28;24431;-75
2022/04/17 03:32:41;;;;;;;3.30;2.42;;;;;;;1.86;78.51;96857.25;5053841;28;24451;-75
2022/04/17 03:35:09;;;;;;;4.53;2.35;;;;;;;1.88;76.40;96860.63;5053907;28;24422;-75
2022/04/17 03:37:36;;;;;;;4.65;2.65;;;;;;;1.82;77.55;96857.31;5053754;28;24430;-75
2022/04/17 03:40:03;;;;;;;2.22;2.03;;;;;;;1.85;76.63;96852.16;5054075;28;24431;-75
2022/04/17 03:42:29;;;;;;;4.20;2.20;;;;;;;1.84;76.46;96853.03;5053611;28;24443;-74
2022/04/17 03:44:56;;;;;;;8.95;2.67;;;;;;;1.68;76.93;96852.34;5053827;28;24423;-75
2022/04/17 03:47:22;;;;;;;4.18;2.85;;;;;;;1.41;79.64;96856.88;5053839;28;24844;-75
2022/04/17 03:49:49;;;;;;;5.00;2.83;;;;;;;1.20;81.47;96844.31;5053715;28;24434;-75
2022/04/17 03:52:17;;;;;;;3.38;2.83;;;;;;;1.05;83.47;96841.91;5053268;28;24422;-75
2022/04/17 03:54:43;;;;;;;4.80;2.83;;;;;;;1.06;83.45;96852.06;5053660;28;24430;-74
2022/04/17 03:57:09;;;;;;;4.07;2.80;;;;;;;1.18;84.10;96841.75;5053354;28;24968;-74
2022/04/17 03:59:36;;;;;;;3.70;2.65;;;;;;;1.33;82.58;96850.13;5053558;28;24419;-75
2022/04/17 04:02:03;;;;;;;4.73;2.47;;;;;;;1.50;78.77;96850.81;5053240;28;24450;-75
2022/04/17 04:04:30;;;;;;;2.35;2.15;;;;;;;1.60;78.54;96852.44;5053289;28;24434;-75
2022/04/17 04:06:56;;;;;;;4.90;2.30;;;;;;;1.25;81.50;96849.38;5053131;28;24984;-75
2022/04/17 04:09:24;;;;;;;6.05;2.75;;;;;;;1.15;81.88;96836.69;5053524;28;24549;-75
2022/04/17 04:11:50;;;;;;;5.05;2.92;;;;;;;0.69;85.45;96841.31;5053369;28;24419;-75
2022/04/17 04:14:17;;;;;;;3.25;2.60;;;;;;;0.31;87.69;96841.53;5053309;28;24469;-75
2022/04/17 04:16:43;;;;;;;6.22;3.25;;;;;;;0.24;91.07;96845.81;5053166;28;24438;-75
2022/04/17 04:19:11;;;;;;;4.65;3.15;;;;;;;0.38;91.14;96840.66;5052962;28;24960;-74
2022/04/17 04:21:47;;;;;;;4.50;3.40;;;;;;;0.59;88.89;96845.59;5053006;28;25025;-75
2022/04/17 04:24:14;;;;;;;4.13;2.97;;;;;;;0.55;90.18;96846.47;5053171;28;24956;-75
2022/04/17 04:26:42;;;;;;;2.88;2.60;;;;;;;0.73;88.17;96854.00;5052896;28;24431;-74
2022/04/17 04:29:08;;;;;;;5.30;3.03;;;;;;;0.55;90.15;96854.13;5053004;28;24423;-75
2022/04/17 04:31:35;;;;;;;4.30;2.17;;;;;;;0.96;84.20;96858.97;5052754;28;24978;-75
2022/04/17 04:34:02;;;;;;;2.95;2.60;;;;;;;1.03;81.77;96851.25;5051921;28;25019;-75
2022/04/17 04:36:28;;;;;;;5.93;2.83;;;;;;;0.87;84.01;96850.53;5052981;28;24427;-73
2022/04/17 04:38:55;;;;;;;3.63;2.75;;;;;;;0.81;84.16;96850.56;5052931;28;24819;-75
2022/04/17 04:41:21;;;;;;;2.40;2.20;;;;;;;0.41;88.44;96848.28;5052550;28;24531;-74
2022/04/17 04:43:49;;;;;;;3.88;2.60;;;;;;;0.25;88.95;96844.97;5052941;28;24820;-74
2022/04/17 04:46:15;;;;;;;3.63;2.47;;;;;;;0.13;91.07;96855.22;5052521;28;24473;-75
2022/04/17 04:51:28;;;;;;;4.10;2.78;;;;;;;0.47;90.97;96858.44;5052410;28;24419;-75
2022/04/17 04:53:56;;;;;;;3.88;2.80;;;;;;;0.65;89.31;96860.03;5052481;28;24450;-74
2022/04/17 04:56:24;;;;;;;4.90;2.93;;;;;;;0.84;87.95;96853.09;5052614;28;24527;-75
2022/04/17 04:58:51;;;;;;;3.20;2.60;;;;;;;0.89;87.04;96851.34;5052560;28;24446;-75
2022/04/17 05:01:18;;;;;;;2.75;2.50;;;;;;;0.99;87.40;96855.53;5052204;28;25066;-75
2022/04/17 05:03:46;;;;;;;3.80;2.40;;;;;;;1.01;85.00;96856.38;5063749;22;24495;-79
2022/04/17 05:06:12;;;;;;;2.63;2.13;;;;;;;0.87;87.00;96848.81;5033757;28;24436;-79
2022/04/17 05:08:38;;;;;;;2.97;2.60;;;;;;;1.05;87.39;96855.50;5033070;28;24455;-79
2022/04/17 05:11:05;;;;;;;3.17;2.87;;;;;;;1.18;87.03;96840.91;5033376;28;24821;-79
2022/04/17 05:13:31;;;;;;;4.05;2.50;;;;;;;1.29;84.35;96830.59;5032944;28;24840;-80
2022/04/17 05:15:59;;;;;;;5.03;3.75;;;;;;;1.11;84.63;96832.50;5034495;28;24427;-79
2022/04/17 05:18:26;;;;;;;4.63;3.60;;;;;;;0.94;89.98;96852.19;5036934;28;24424;-79
2022/04/17 05:20:53;;;;;;;5.32;4.10;;;;;;;1.09;89.78;96851.22;5037326;28;24424;-80
2022/04/17 05:23:22;;;;;;;6.18;3.88;;;;;;;1.26;87.02;96849.38;5036202;28;24470;-79
2022/04/17 05:25:55;;;;;;;9.45;3.80;;;;;;;1.16;88.61;96846.03;5035000;28;24419;-79
2022/04/17 05:28:23;;;;;;;5.22;3.78;;;;;;;1.35;88.43;96848.44;5033494;28;24777;-79
2022/04/17 05:30:49;;;;;;;4.82;3.30;;;;;;;1.74;87.33;96852.28;5033649;28;24469;-79
2022/04/17 05:33:19;;;;;;;4.07;3.00;;;;;;;1.89;85.89;96852.13;5034004;28;24520;-79
2022/04/17 05:35:46;;;;;;;3.55;3.10;;;;;;;2.17;85.65;96847.50;5033713;28;24423;-79
2022/04/17 05:38:12;;;;;;;3.92;3.50;;;;;;;2.40;85.45;96856.59;5033523;28;24809;-79
2022/04/17 05:40:44;;;;;;;3.92;3.05;;;;;;;3.01;83.23;96860.84;5033096;28;24832;-79
2022/04/17 05:43:11;;;;;;;6.17;3.80;;;;;;;3.16;84.66;96862.31;5033770;28;24444;-80
2022/04/17 05:45:39;;;;;;;6.18;3.13;;;;;;;3.17;85.44;96855.47;5033083;28;24806;-80
2022/04/17 05:48:07;;;;;;;3.60;3.03;;;;;;;2.96;87.75;96859.22;5032727;28;24435;-79
2022/04/17 05:50:35;;;;;;;5.18;3.40;;;;;;;3.12;87.16;96863.22;5032190;28;24443;-79
2022/04/17 05:53:01;;;;;;;5.15;3.55;;;;;;;3.17;87.95;96863.16;5031199;28;24431;-79
2022/04/17 05:55:28;;;;;;;3.35;3.05;;;;;;;3.35;86.71;96857.72;5031622;28;24423;-78
2022/04/17 05:57:55;;;;;;;5.85;3.65;;;;;;;3.60;85.51;96858.16;5031547;28;24431;-78
2022/04/17 06:00:22;;;;;;;4.85;3.75;;;;;;;3.71;85.40;96863.06;5031739;28;24431;-79
2022/04/17 06:02:49;;;;;;;3.92;3.53;;;;;;;3.96;85.64;96864.28;5031607;28;24440;-78
2022/04/17 06:05:17;;;;;;;4.50;3.80;;;;;;;4.15;85.38;96864.78;5031066;28;24503;-79
2022/04/17 06:07:45;;;;;;;5.22;3.55;;;;;;;4.16;86.76;96875.91;5031070;28;24836;-79
2022/04/17 06:10:13;;;;;;;5.40;3.30;;;;;;;4.48;88.42;96875.22;5031303;28;24468;-78
2022/04/17 06:12:41;;;;;;;8.27;3.53;;;;;;;4.65;87.12;96873.16;5030462;28;24519;-78
2022/04/17 06:15:09;;;;;;;6.13;4.03;;;;;;;4.64;85.86;96866.34;5037418;28;24439;-80
2022/04/17 06:17:39;;;;;;;4.43;3.38;;;;;;;4.47;81.62;96869.25;5038577;28;24428;-80
2022/04/17 06:20:07;;;;;;;6.95;3.80;;;;;;;4.15;80.71;96861.38;5037691;28;24515;-80
2022/04/17 06:22:35;;;;;;;4.82;3.47;;;;;;;4.10;76.19;96864.88;5030495;28;24978;-79
2022/04/17 06:25:04;;;;;;;5.97;3.88;;;;;;;4.16;77.56;96863.91;5030675;28;24516;-78
2022/04/17 06:27:37;;;;;;;6.72;3.92;;;;;;;4.14;79.76;96857.97;5030677;28;25077;-77
2022/04/17 06:30:09;;;;;;;6.07;4.43;;;;;;;4.66;81.20;96858.59;5030656;28;24514;-77
2022/04/17 06:32:36;;;;;;;4.78;4.07;;;;;;;4.94;77.28;96858.81;5030203;28;24447;-81
2022/04/17 06:35:02;;;;;;;4.10;3.20;;;;;;;5.24;72.46;96855.53;5030797;28;24988;-79
2022/04/17 06:37:29;;;;;;;5.40;3.30;;;;;;;5.30;66.82;96857.09;5030468;28;24439;-77
2022/04/17 06:39:57;;;;;;;3.30;3.00;;;;;;;5.54;70.46;96863.34;5030222;28;24478;-77
2022/04/17 06:42:25;;;;;;;5.00;3.28;;;;;;;5.88;69.34;96858.16;5028579;28;24554;-77
2022/04/17 06:44:51;;;;;;;3.90;3.42;;;;;;;6.19;67.61;96855.66;5030412;28;24443;-77
2022/04/17 06:47:18;;;;;;;4.18;3.20;;;;;;;6.47;64.05;96860.00;5030322;28;25023;-77
2022/04/17 06:49:44;;;;;;;4.23;3.37;;;;;;;6.53;63.40;96855.50;5030677;28;24427;-77
2022/04/17 06:52:11;;;;;;;4.40;3.43;;;;;;;6.73;68.39;96852.34;5030490;28;24490;-77
2022/04/17 06:54:37;;;;;;;3.53;2.87;;;;;;;7.08;66.43;96842.66;5030641;28;24424;-77
2022/04/17 06:57:04;;;;;;;4.85;3.33;;;;;;;6.51;61.71;96851.28;5029996;28;24494;-77
2022/04/17 06:59:32;;;;;;;3.35;3.05;;;;;;;7.03;63.90;96847.13;5030633;28;24420;-77
2022/04/17 07:01:58;;;;;;;3.95;3.25;;;;;;;7.10;60.91;96840.06;5029823;28;24475;-77
2022/04/17 07:04:25;;;;;;;4.45;3.33;;;;;;;7.43;60.28;96844.09;5030292;28;24809;-77
2022/04/17 07:06:52;;;;;;;4.05;2.60;;;;;;;7.75;55.37;96832.72;5030305;28;24522;-77
2022/04/17 07:09:18;;;;;;;7.70;3.58;;;;;;;7.59;56.40;96828.13;5030269;28;24478;-77
2022/04/17 07:11:45;;;;;;;5.13;3.00;;;;;;;7.89;57.52;96826.22;5029978;28;24466;-77
2022/04/17 07:14:14;;;;;;;2.65;2.22;;;;;;;8.08;56.89;96828.97;5030449;28;24420;-77
2022/04/17 07:16:43;;;;;;;3.63;2.90;;;;;;;8.13;56.62;96820.19;5030275;28;24424;-77
2022/04/17 07:19:09;;;;;;;4.27;2.77;;;;;;;8.35;56.74;96819.41;5030249;28;24419;-76
2022/04/17 07:21:35;;;;;;;3.20;2.60;;;;;;;8.58;53.97;96824.56;5030117;28;24511;-76
2022/04/17 07:24:02;;;;;;;4.80;2.43;;;;;;;8.59;50.92;96813.34;5030200;28;24451;-76
2022/04/17 07:26:29;;;;;;;3.92;2.33;;;;;;;8.69;49.53;96817.25;5029967;28;24523;-76
2022/04/17 07:28:55;;;;;;;3.85;2.47;;;;;;;8.50;49.78;96811.13;5029917;28;24604;-76
2022/04/17 07:31:22;;;;;;;4.55;2.20;;;;;;;8.15;56.76;96812.38;5030073;28;24481;-75
2022/04/17 07:33:49;;;;;;;3.30;2.08;;;;;;;7.85;56.49;96810.00;5029618;28;24428;-76
2022/04/17 07:36:16;;;;;;;2.70;2.10;;;;;;;7.98;52.90;96810.44;5029819;28;24428;-75
2022/04/17 07:38:42;;;;;;;2.90;1.95;;;;;;;8.09;50.82;96805.72;5029880;28;24416;-76
2022/04/17 07:41:09;;;;;;;3.97;2.30;;;;;;;8.18;53.81;96805.38;5029675;28;24482;-76
2022/04/17 07:43:35;;;;;;;3.58;2.10;;;;;;;8.05;53.07;96803.31;5029424;28;25000;-76
2022/04/17 07:46:02;;;;;;;5.35;2.55;;;;;;;7.96;50.98;96802.72;5029967;28;24825;-76
2022/04/17 07:48:28;;;;;;;4.38;2.08;;;;;;;8.24;51.85;96799.16;5030572;28;24420;-78
2022/04/17 07:50:56;;;;;;;3.60;1.95;;;;;;;8.39;55.55;96797.78;5032526;28;24991;-78
2022/04/17 07:53:22;;;;;;;2.60;2.13;;;;;;;8.45;51.93;96790.66;5031868;28;24431;-73
2022/04/17 07:55:50;;;;;;;2.95;1.92;;;;;;;8.65;55.85;96796.78;5031205;28;24415;-79
2022/04/17 07:58:24;;;;;;;2.50;1.75;;;;;;;8.87;50.74;96789.88;5031208;28;24428;-79
2022/04/17 08:00:57;;;;;;;2.97;1.80;;;;;;;8.40;49.28;96791.72;5032548;28;24514;-79
2022/04/17 08:03:35;;;;;;;3.25;1.85;;;;;;;8.39;56.18;96782.28;5032190;28;24440;-79
2022/04/17 08:06:05;;;;;;;2.55;1.75;;;;;;;8.84;50.74;96776.22;5032435;28;24487;-79
2022/04/17 08:08:31;;;;;;;2.42;1.90;;;;;;;9.17;53.42;96776.63;5032937;28;24451;-79
2022/04/17 08:10:59;;;;;;;2.40;1.80;;;;;;;9.25;53.72;96777.13;5035937;28;24477;-79
2022/04/17 08:13:25;;;;;;;2.78;1.70;;;;;;;9.13;49.03;96781.06;5036436;28;24485;-79
2022/04/17 08:15:52;;;;;;;2.55;1.95;;;;;;;8.95;46.53;96774.91;5035997;28;24518;-79
2022/04/17 08:18:18;;;;;;;5.07;2.10;;;;;;;9.26;48.77;96768.47;5037408;28;24419;-79
2022/04/17 08:20:45;;;;;;;1.70;1.48;;;;;;;9.69;50.01;96766.66;5036552;28;24444;-79
2022/04/17 08:23:13;;;;;;;2.78;2.00;;;;;;;9.87;47.74;96770.19;5035990;28;24458;-79
2022/04/17 08:25:39;;;;;;;2.70;1.83;;;;;;;9.80;49.75;96768.78;5033266;28;24426;-77
2022/04/17 08:28:06;;;;;;;2.53;1.70;;;;;;;10.02;43.39;96773.84;5032887;28;24987;-77
2022/04/17 08:30:34;;;;;;;2.30;1.80;;;;;;;10.21;48.15;96769.53;5032863;28;24420;-77
2022/04/17 08:33:02;;;;;;;2.90;1.65;;;;;;;10.13;48.39;96761.25;5034297;28;24805;-77
2022/04/17 08:35:29;;;;;;;2.45;1.65;;;;;;;10.26;48.33;96762.41;5033330;28;24431;-77
2022/04/17 08:37:57;;;;;;;2.42;1.52;;;;;;;10.03;44.90;96770.34;5033309;28;24507;-78
2022/04/17 08:40:26;;;;;;;2.78;1.60;;;;;;;9.79;46.28;96762.78;5033499;28;24829;-77
2022/04/17 08:42:53;;;;;;;4.60;2.15;;;;;;;9.74;45.14;96764.69;5033154;28;24480;-77
2022/04/17 08:45:21;;;;;;;2.83;1.92;;;;;;;9.89;46.53;96763.19;5033476;28;24466;-77
2022/04/17 08:47:48;;;;;;;3.28;1.98;;;;;;;9.88;47.68;96757.19;5029120;28;24420;-73
2022/04/17 08:50:16;;;;;;;3.60;1.67;;;;;;;10.33;47.59;96760.38;5032203;28;24420;-70
2022/04/17 08:52:46;;;;;;;4.43;1.83;;;;;;;10.15;42.79;96754.25;5032297;28;24466;-73
2022/04/17 08:55:13;;;;;;;4.50;1.73;;;;;;;10.71;50.18;96755.16;5032168;28;24415;-72
2022/04/17 08:57:41;;;;;;;2.22;1.67;;;;;;;10.53;45.65;96755.13;5032385;28;24820;-72
2022/04/17 09:00:10;;;;;;;5.97;1.75;;;;;;;10.53;43.45;96743.91;5032488;28;20760;-71
2022/04/17 09:02:37;;;;;;;2.92;1.73;;;;;;;10.30;42.43;96752.75;5031313;28;24519;-72
2022/04/17 09:05:05;;;;;;;2.85;1.40;;;;;;;10.10;42.30;96736.34;5031905;28;24424;-71
2022/04/17 09:07:40;;;;;;;4.18;1.45;;;;;;;10.05;43.26;96743.50;5032110;28;20853;-73
2022/04/17 09:10:07;;;;;;;2.97;1.40;;;;;;;10.08;39.87;96745.91;5032151;28;24443;-71
2022/04/17 09:12:34;;;;;;;3.20;1.50;;;;;;;10.16;42.82;96738.66;5031531;28;24531;-70
2022/04/17 09:15:03;;;;;;;3.60;1.60;;;;;;;10.54;44.43;96730.06;5031722;28;24432;-72
2022/04/17 09:17:32;;;;;;;3.08;1.40;;;;;;;10.63;41.11;96721.84;5032031;28;24841;-67
2022/04/17 09:19:58;;;;;;;2.40;1.80;;;;;;;10.70;41.18;96723.22;5031780;28;24420;-69
2022/04/17 09:22:25;;;;;;;4.68;1.80;;;;;;;11.22;43.60;96712.88;5031336;28;24412;-70
2022/04/17 09:24:52;;;;;;;1.80;1.58;;;;;;;10.98;44.06;96712.38;5031931;28;24432;-69
2022/04/17 09:27:27;;;;;;;3.00;1.88;;;;;;;11.26;44.43;96709.22;5031800;28;24778;-69
2022/04/17 09:29:53;;;;;;;4.57;1.70;;;;;;;11.15;45.14;96703.75;5031802;28;20764;-69
2022/04/17 09:32:21;;;;;;;2.53;1.70;;;;;;;11.03;45.31;96704.34;5031204;28;24423;-69
2022/04/17 09:34:50;;;;;;;3.65;1.75;;;;;;;11.53;45.48;96691.44;5031844;28;20797;-69
2022/04/17 09:37:18;;;;;;;2.80;1.60;;;;;;;11.53;41.83;96690.56;5031308;28;24420;-69
2022/04/17 09:39:46;;;;;;;2.08;1.55;;;;;;;11.82;42.08;96682.09;5031814;28;20756;-68
2022/04/17 09:42:13;;;;;;;3.25;1.83;;;;;;;11.84;43.92;96685.50;5030808;28;20799;-70
2022/04/17 09:44:49;;;;;;;2.40;1.60;;;;;;;11.82;43.25;96691.63;5031557;28;20827;-70
2022/04/17 09:47:18;;;;;;;2.70;1.60;;;;;;;11.71;41.43;96684.41;5031480;28;20662;-69
2022/04/17 09:49:53;;;;;;;2.78;1.55;;;;;;;11.74;36.08;96678.25;5031229;28;20776;-69
2022/04/17 09:52:20;;;;;;;1.70;1.27;;;;;;;11.96;40.35;96673.59;5030967;28;20687;-68
2022/04/17 09:54:48;;;;;;;2.00;1.20;;;;;;;11.90;43.24;96675.69;5031112;28;20773;-69
2022/04/17 09:57:18;;;;;;;2.63;1.65;;;;;;;12.18;39.53;96669.84;5031111;28;20803;-69
2022/04/17 09:59:45;;;;;;;1.83;1.50;;;;;;;12.39;42.96;96675.63;5031347;28;20714;-69
2022/04/17 10:02:12;;;;;;;2.70;1.45;;;;;;;12.27;39.07;96672.78;5030680;28;24870;-68
2022/04/17 10:04:40;;;;;;;3.13;1.10;;;;;;;12.17;43.40;96669.03;5030912;28;20824;-69
2022/04/17 10:07:08;;;;;;;2.63;1.50;;;;;;;11.93;40.59;96667.75;5030912;28;20768;-68
2022/04/17 10:09:34;;;;;;;2.25;1.38;;;;;;;12.05;39.78;96660.16;5031348;28;20864;-69
2022/04/17 10:12:03;;;;;;;4.20;1.50;;;;;;;12.40;40.73;96656.53;5030194;28;20763;-69
2022/04/17 10:14:30;;;;;;;4.10;1.30;;;;;;;12.64;39.14;96651.69;5030993;28;24792;-69
2022/04/17 10:16:58;;;;;;;2.80;1.45;;;;;;;12.60;42.59;96649.25;5031111;28;20761;-69
2022/04/17 10:19:27;;;;;;;4.32;1.20;;;;;;;12.67;35.87;96644.56;5031058;28;20756;-69
2022/04/17 10:21:58;;;;;;;2.27;1.20;;;;;;;12.41;42.23;96653.81;5030627;28;24516;-69
2022/04/17 10:24:26;;;;;;;2.00;1.27;;;;;;;12.49;41.18;96648.19;5031166;28;20708;-69
2022/04/17 10:26:54;;;;;;;1.30;1.10;;;;;;;12.05;38.30;96643.69;5031154;28;20843;-69
2022/04/17 10:29:24;;;;;;;4.20;1.30;;;;;;;12.03;38.90;96654.19;5031198;28;21339;-68
2022/04/17 10:32:07;;;;;;;18.55;1.85;;;;;;;11.97;34.91;96641.53;5030244;28;20827;-68
2022/04/17 10:34:57;;;;;;;1.58;1.10;;;;;;;12.15;37.36;96631.91;5030573;28;25042;-69
2022/04/17 10:38:00;;;;;;;1.50;1.15;;;;;;;12.27;37.70;96652.00;5030994;28;20735;-69
2022/04/17 10:40:29;;;;;;;2.00;1.10;;;;;;;12.47;36.53;96645.69;5030610;28;20758;-69
2022/04/17 10:42:57;;;;;;;3.33;1.43;;;;;;;12.42;34.20;96639.94;5030450;28;21180;-69
2022/04/17 10:45:25;;;;;;;2.30;1.23;;;;;;;12.39;39.10;96632.31;5030836;28;20798;-69
2022/04/17 10:48:03;;;;;;;2.13;0.90;;;;;;;12.44;38.98;96637.22;5030829;28;20756;-69
2022/04/17 10:50:30;;;;;;;2.60;1.08;;;;;;;12.12;33.68;96639.84;5030708;28;20852;-68
2022/04/17 10:53:23;;;;;;;2.40;1.20;;;;;;;12.45;40.56;96633.69;5029562;28;21313;-69
2022/04/17 10:56:04;;;;;;;8.45;1.17;;;;;;;12.50;33.27;96636.91;5030585;28;20757;-69
2022/04/17 10:58:37;;;;;;;2.33;1.20;;;;;;;12.47;40.00;96635.31;5030761;28;20893;-69
2022/04/17 11:01:04;;;;;;;2.30;1.20;;;;;;;12.26;35.65;96639.94;5030351;28;20767;-69
2022/04/17 11:03:34;;;;;;;1.40;1.10;;;;;;;12.40;36.91;96625.34;5029988;28;24447;-70
2022/04/17 11:06:29;;;;;;;2.15;1.40;;;;;;;12.31;38.97;96617.16;5064264;22;25062;-73
2022/04/17 11:08:58;;;;;;;1.80;1.10;;;;;;;12.64;37.58;96621.34;5052159;28;20760;-73
2022/04/17 11:11:36;;;;;;;3.03;1.30;;;;;;;12.65;40.62;96615.22;5052029;28;20765;-73
2022/04/17 11:14:09;;;;;;;2.47;1.20;;;;;;;12.69;37.53;96613.28;5051979;28;20872;-74
2022/04/17 11:16:42;;;;;;;1.30;1.02;;;;;;;12.55;36.28;96603.69;5052265;28;20678;-74
2022/04/17 11:19:11;;;;;;;3.90;1.20;;;;;;;12.59;36.48;96603.41;5051884;28;24427;-73
2022/04/17 11:21:38;;;;;;;2.83;1.20;;;;;;;12.80;35.15;96597.91;5051322;28;21112;-72
2022/04/17 11:24:05;;;;;;;2.28;1.25;;;;;;;12.81;40.77;96596.97;5051315;28;24475;-73
2022/04/17 11:27:11;;;;;;;3.20;1.30;;;;;;;13.05;42.63;96597.28;5051695;28;24461;-72
2022/04/17 11:29:39;;;;;;;2.50;1.40;;;;;;;13.18;44.25;96598.22;5051333;28;24417;-73
2022/04/17 11:32:39;;;;;;;2.40;1.60;;;;;;;13.11;41.00;96586.53;5051693;28;24968;-74
2022/04/17 11:35:07;;;;;;;4.30;1.43;;;;;;;13.19;37.93;96584.28;5051040;28;24561;-73
2022/04/17 11:37:34;;;;;;;2.53;1.20;;;;;;;13.26;40.90;96588.22;5047159;28;24462;-73
2022/04/17 11:40:09;;;;;;;1.90;1.17;;;;;;;12.89;37.45;96586.97;5050701;28;24431;-73
2022/04/17 11:42:43;;;;;;;2.30;1.20;;;;;;;12.90;39.77;96580.81;5047658;28;24439;-73
2022/04/17 11:45:10;;;;;;;2.13;1.30;;;;;;;12.93;41.67;96577.22;5054663;28;24552;-74
2022/04/17 11:47:39;;;;;;;2.00;1.50;;;;;;;13.05;36.30;96584.28;5055389;28;24403;-74
2022/04/17 11:50:08;;;;;;;3.22;1.40;;;;;;;12.71;38.68;96582.84;5055026;28;24473;-74
2022/04/17 11:52:34;;;;;;;3.63;1.65;;;;;;;12.91;37.68;96563.50;5053931;28;24510;-74